»·PEaware :: N560PC KEUG-KHIO

N560PC :: KEUG-KHIO

FLIGHT INFORMATION

Flight Status: Arrived
Operator: Privately registered:
United States
More flights under this callsign
Pilot: Andrew M. (20248)
Aircraft: CESSNA 152 AEROBAT
(C152)
More flights by this aircraft type
Origin: KEUG Mahlon Sweet
United States
Destination: KHIO Portland-Hillsboro
United States
More flights between these airports :: More routes between these airports
Route: +DIRECT
File this flight plan on PilotEdge
Remarks: Sample flight plan
Altitude:
(Current/Filed)
4,500ft
Speed:
(Current/Filed)
100kts
Departed: 07-Sep-18 12:28 PM
Arrived: 07-Sep-18 01:27 PM
Distance/Time
Traveled:
1nm/0:58
Distance/Time
To Go:
Arrived

Flight Plot

Page will automatically refresh every two minutes.

Flight plan parsing failed; only flown route is shown


Map Options




Map Legend


Flown Route
Filed Route
Departure Airport
Arrival Airport
Navaid (VOR, NDB)
Fix

Horizontal Profiles

Position Reports

Time Latitude Longitude Heading Altitude Ground
Speed
07-Sep-18 12:15 44.122524 -123.211484 209 377ft 0kts
07-Sep-18 12:16 44.122524 -123.211484 209 377ft 0kts
07-Sep-18 12:17 44.122524 -123.211484 209 377ft 0kts
07-Sep-18 12:18 44.122500 -123.211509 227 377ft 2kts
07-Sep-18 12:19 44.122268 -123.211920 229 377ft 0kts
07-Sep-18 12:20 44.122268 -123.211920 229 377ft 0kts
07-Sep-18 12:21 44.124288 -123.210429 31 377ft 11kts
07-Sep-18 12:22 44.126365 -123.208722 87 377ft 10kts
07-Sep-18 12:23 44.126402 -123.204826 89 377ft 10kts
07-Sep-18 12:24 44.128814 -123.204216 358 377ft 9kts
07-Sep-18 12:25 44.131956 -123.204436 327 377ft 13kts
07-Sep-18 12:26 44.132229 -123.204644 5 377ft 0kts
07-Sep-18 12:27 44.132841 -123.203901 69 377ft 0kts
07-Sep-18 12:28 44.132841 -123.203901 69 377ft 0kts
07-Sep-18 12:29 44.131866 -123.202707 177 377ft 31kts
07-Sep-18 12:30 44.113427 -123.201434 164 975ft 71kts
07-Sep-18 12:31 44.120866 -123.185259 8 1716ft 71kts
07-Sep-18 12:32 44.139919 -123.179817 24 2439ft 70kts
07-Sep-18 12:33 44.159246 -123.175158 7 3108ft 73kts
07-Sep-18 12:34 44.179238 -123.176928 341 3731ft 73kts
07-Sep-18 12:35 44.198106 -123.188133 342 4281ft 74kts
07-Sep-18 12:36 44.219879 -123.193692 351 4484ft 87kts
07-Sep-18 12:36 44.242975 -123.191996 9 4400ft 96kts
07-Sep-18 12:37 44.267035 -123.187218 7 4523ft 92kts
07-Sep-18 12:39 44.298389 -123.180074 10 4507ft 105kts
07-Sep-18 12:40 44.327839 -123.175148 1 4432ft 107kts
07-Sep-18 12:40 44.352039 -123.169803 16 4368ft 107kts
07-Sep-18 12:41 44.381045 -123.164079 1 4362ft 105kts
07-Sep-18 12:42 44.409998 -123.161349 10 4387ft 103kts
07-Sep-18 12:43 44.438409 -123.154938 7 4419ft 103kts
07-Sep-18 12:44 44.466964 -123.149408 9 4445ft 103kts
07-Sep-18 12:45 44.495297 -123.143373 10 4468ft 103kts
07-Sep-18 12:46 44.523998 -123.138455 0 4468ft 104kts
07-Sep-18 12:47 44.552549 -123.133666 7 4426ft 105kts
07-Sep-18 12:48 44.581182 -123.128285 6 4420ft 105kts
07-Sep-18 12:49 44.609988 -123.123682 8 4428ft 104kts
07-Sep-18 12:50 44.638856 -123.118349 11 4438ft 104kts
07-Sep-18 12:51 44.667408 -123.110796 7 4447ft 104kts
07-Sep-18 12:52 44.695787 -123.109039 0 4347ft 101kts
07-Sep-18 12:53 44.721267 -123.104505 12 4418ft 102kts
07-Sep-18 12:54 44.749831 -123.098598 6 4413ft 105kts
07-Sep-18 12:55 44.778794 -123.093643 7 4410ft 105kts
07-Sep-18 12:56 44.806856 -123.093596 355 4406ft 105kts
07-Sep-18 12:57 44.834911 -123.085810 27 4404ft 105kts
07-Sep-18 12:58 44.863067 -123.076734 7 4381ft 105kts
07-Sep-18 12:59 44.891995 -123.071545 4 4379ft 105kts
07-Sep-18 13:00 44.920907 -123.066352 7 4384ft 105kts
07-Sep-18 13:01 44.949709 -123.060311 5 4381ft 105kts
07-Sep-18 13:03 44.978755 -123.055988 1 4383ft 105kts
07-Sep-18 13:04 45.007748 -123.058910 4 4386ft 105kts
07-Sep-18 13:05 45.036561 -123.052835 10 4391ft 105kts
07-Sep-18 13:06 45.064488 -123.041428 24 4397ft 105kts
07-Sep-18 13:07 45.089290 -123.028800 10 4394ft 105kts
07-Sep-18 13:08 45.112715 -123.026637 3 4399ft 104kts
07-Sep-18 13:09 45.119822 -123.026139 2 4399ft 105kts
07-Sep-18 13:10 45.148873 -123.024406 7 4403ft 105kts
07-Sep-18 13:11 45.177891 -123.021072 355 4405ft 105kts
07-Sep-18 13:12 45.206754 -123.021325 12 4412ft 104kts
07-Sep-18 13:13 45.234794 -123.010071 14 4416ft 105kts
07-Sep-18 13:14 45.263019 -122.999515 14 4422ft 105kts
07-Sep-18 13:15 45.291917 -122.996089 4 4426ft 104kts
07-Sep-18 13:16 45.320650 -122.989817 7 4431ft 105kts
07-Sep-18 13:17 45.349376 -122.985715 5 3920ft 104kts
07-Sep-18 13:18 45.378026 -122.981989 5 3342ft 103kts
07-Sep-18 13:19 45.406729 -122.981579 355 3064ft 102kts
07-Sep-18 13:20 45.433691 -122.981320 8 2817ft 102kts
07-Sep-18 13:21 45.442885 -123.004521 208 2127ft 106kts
07-Sep-18 13:22 45.430627 -122.982423 42 1388ft 105kts
07-Sep-18 13:23 45.446093 -122.950625 60 1231ft 100kts
07-Sep-18 13:24 45.458852 -122.916392 61 1140ft 97kts
07-Sep-18 13:25 45.472298 -122.887091 49 1121ft 96kts
07-Sep-18 13:26 45.493286 -122.898178 312 1081ft 96kts
07-Sep-18 13:27 45.511902 -122.919819 324 1012ft 70kts
07-Sep-18 13:28 45.526050 -122.934700 324 532ft 61kts
07-Sep-18 13:29 45.537897 -122.947195 322 207ft 29kts
07-Sep-18 13:30 45.539187 -122.949829 176 207ft 6kts
07-Sep-18 13:31 45.538903 -122.949789 173 207ft 0kts
07-Sep-18 13:32 44.122524 -123.211484 209 377ft 0kts
07-Sep-18 13:33 44.132841 -123.203901 69 377ft 0kts
07-Sep-18 13:34 44.132841 -123.203901 69 377ft 0kts

Navigation Log

Ident Type
Flight plan parsing failed, navigation log unavailable